Mill Creek, California
Current Conditions -  °F | °C
As of 8:54 PM on Friday 31 Oct 2014 (Local Time) from KRBL Reporting Station
Scattered Clouds Scattered Clouds  
Wind Chill: 53°   Ceiling: Unl
Heat Index: 53°   Visibility: 10mi
Dew Point: 51°   Wind: 3mph
Humidity: 93%   Direction: 310°NW
Pressure: 29.73"   Gusts: NA
Location:  40.33°N, 121.52°W
Report Text: KRBL 010354Z AUTO 31003KT 10SM SCT090 12/11 A2973 RMK AO2 SLP067 T01170106
Loading
Personal Weather Stations






























Interactive Weather Map
Tropical Storm Tracking
New forecast layout! Learn more

10-Day Weather Forecast

Advertisements
Track Severe Weather on mobile